sensor_id;sensor_type;location;lat;lon;timestamp;temperature;humidity
29093;DHT22;16167;48.768;14.984;2023-07-22T00:02:09;14.80;58.30
29093;DHT22;16167;48.768;14.984;2023-07-22T00:04:37;14.70;65.40
29093;DHT22;16167;48.768;14.984;2023-07-22T00:07:06;14.70;73.20
29093;DHT22;16167;48.768;14.984;2023-07-22T00:09:34;14.70;65.90
29093;DHT22;16167;48.768;14.984;2023-07-22T00:12:02;14.60;67.50
29093;DHT22;16167;48.768;14.984;2023-07-22T00:14:31;14.70;73.60
29093;DHT22;16167;48.768;14.984;2023-07-22T00:16:59;14.70;77.00
29093;DHT22;16167;48.768;14.984;2023-07-22T00:19:28;14.70;75.00
29093;DHT22;16167;48.768;14.984;2023-07-22T00:21:56;14.70;76.80
29093;DHT22;16167;48.768;14.984;2023-07-22T00:24:25;14.80;70.40
29093;DHT22;16167;48.768;14.984;2023-07-22T00:26:54;14.80;69.60
29093;DHT22;16167;48.768;14.984;2023-07-22T00:29:22;14.80;77.30
29093;DHT22;16167;48.768;14.984;2023-07-22T00:31:50;14.90;72.70
29093;DHT22;16167;48.768;14.984;2023-07-22T00:34:19;14.90;70.70
29093;DHT22;16167;48.768;14.984;2023-07-22T00:36:51;14.80;70.30
29093;DHT22;16167;48.768;14.984;2023-07-22T00:39:19;14.80;69.20
29093;DHT22;16167;48.768;14.984;2023-07-22T00:41:48;14.80;70.30
29093;DHT22;16167;48.768;14.984;2023-07-22T00:44:18;14.70;63.10
29093;DHT22;16167;48.768;14.984;2023-07-22T00:46:46;14.70;70.00
29093;DHT22;16167;48.768;14.984;2023-07-22T00:49:14;14.60;68.90
29093;DHT22;16167;48.768;14.984;2023-07-22T00:51:44;14.50;63.90
29093;DHT22;16167;48.768;14.984;2023-07-22T00:54:14;14.50;67.70
29093;DHT22;16167;48.768;14.984;2023-07-22T00:56:43;14.40;63.90
29093;DHT22;16167;48.768;14.984;2023-07-22T00:59:12;14.40;66.40
29093;DHT22;16167;48.768;14.984;2023-07-22T01:01:41;14.30;71.60
29093;DHT22;16167;48.768;14.984;2023-07-22T01:04:09;14.30;76.50
29093;DHT22;16167;48.768;14.984;2023-07-22T01:06:38;14.30;79.30
29093;DHT22;16167;48.768;14.984;2023-07-22T01:09:06;14.20;78.80
29093;DHT22;16167;48.768;14.984;2023-07-22T01:11:37;14.20;80.40
29093;DHT22;16167;48.768;14.984;2023-07-22T01:14:06;14.10;79.50
29093;DHT22;16167;48.768;14.984;2023-07-22T01:16:35;14.20;82.50
29093;DHT22;16167;48.768;14.984;2023-07-22T01:19:04;14.10;84.10
29093;DHT22;16167;48.768;14.984;2023-07-22T01:21:34;14.10;85.90
29093;DHT22;16167;48.768;14.984;2023-07-22T01:24:05;14.20;85.90
29093;DHT22;16167;48.768;14.984;2023-07-22T01:26:34;14.20;82.60
29093;DHT22;16167;48.768;14.984;2023-07-22T01:29:04;14.20;84.80
29093;DHT22;16167;48.768;14.984;2023-07-22T01:31:34;14.20;81.10
29093;DHT22;16167;48.768;14.984;2023-07-22T01:34:03;14.20;81.80
29093;DHT22;16167;48.768;14.984;2023-07-22T01:36:31;14.20;78.50
29093;DHT22;16167;48.768;14.984;2023-07-22T01:39:00;14.20;79.70
29093;DHT22;16167;48.768;14.984;2023-07-22T01:41:29;14.20;83.40
29093;DHT22;16167;48.768;14.984;2023-07-22T01:43:57;14.20;82.90
29093;DHT22;16167;48.768;14.984;2023-07-22T01:46:26;14.20;77.90
29093;DHT22;16167;48.768;14.984;2023-07-22T01:48:55;14.30;72.80
29093;DHT22;16167;48.768;14.984;2023-07-22T01:51:23;14.30;66.90
29093;DHT22;16167;48.768;14.984;2023-07-22T01:53:52;14.30;61.00
29093;DHT22;16167;48.768;14.984;2023-07-22T01:56:20;14.30;60.90
29093;DHT22;16167;48.768;14.984;2023-07-22T01:58:49;14.30;62.40
29093;DHT22;16167;48.768;14.984;2023-07-22T02:01:18;14.30;48.50
29093;DHT22;16167;48.768;14.984;2023-07-22T02:03:46;14.40;44.70
29093;DHT22;16167;48.768;14.984;2023-07-22T02:06:14;14.40;47.30
29093;DHT22;16167;48.768;14.984;2023-07-22T02:08:42;14.40;43.90
29093;DHT22;16167;48.768;14.984;2023-07-22T02:11:11;14.40;41.20
29093;DHT22;16167;48.768;14.984;2023-07-22T02:13:39;14.40;36.60
29093;DHT22;16167;48.768;14.984;2023-07-22T02:16:08;14.40;36.00
29093;DHT22;16167;48.768;14.984;2023-07-22T02:18:38;14.40;37.30
29093;DHT22;16167;48.768;14.984;2023-07-22T02:21:06;14.40;33.80
29093;DHT22;16167;48.768;14.984;2023-07-22T02:23:34;14.40;33.40
29093;DHT22;16167;48.768;14.984;2023-07-22T02:26:02;14.30;38.70
29093;DHT22;16167;48.768;14.984;2023-07-22T02:28:31;14.30;26.90
29093;DHT22;16167;48.768;14.984;2023-07-22T02:31:01;14.30;29.50
29093;DHT22;16167;48.768;14.984;2023-07-22T02:33:32;14.20;27.40
29093;DHT22;16167;48.768;14.984;2023-07-22T02:36:00;14.20;29.70
29093;DHT22;16167;48.768;14.984;2023-07-22T02:38:28;14.20;34.90
29093;DHT22;16167;48.768;14.984;2023-07-22T02:41:01;14.10;36.40
29093;DHT22;16167;48.768;14.984;2023-07-22T02:43:29;14.00;39.00
29093;DHT22;16167;48.768;14.984;2023-07-22T02:46:01;13.90;40.90
29093;DHT22;16167;48.768;14.984;2023-07-22T02:48:31;13.80;37.00
29093;DHT22;16167;48.768;14.984;2023-07-22T02:51:03;13.80;41.60
29093;DHT22;16167;48.768;14.984;2023-07-22T02:53:32;13.70;40.40
29093;DHT22;16167;48.768;14.984;2023-07-22T02:56:00;13.60;38.90
29093;DHT22;16167;48.768;14.984;2023-07-22T02:58:28;13.60;38.70
29093;DHT22;16167;48.768;14.984;2023-07-22T03:00:57;13.50;41.90
29093;DHT22;16167;48.768;14.984;2023-07-22T03:03:25;13.40;43.80
29093;DHT22;16167;48.768;14.984;2023-07-22T03:05:55;13.40;45.30
29093;DHT22;16167;48.768;14.984;2023-07-22T03:08:24;13.30;50.70
29093;DHT22;16167;48.768;14.984;2023-07-22T03:10:52;13.30;44.90
29093;DHT22;16167;48.768;14.984;2023-07-22T03:13:21;13.20;50.80
29093;DHT22;16167;48.768;14.984;2023-07-22T03:15:49;13.20;50.20
29093;DHT22;16167;48.768;14.984;2023-07-22T03:18:17;13.10;48.80
29093;DHT22;16167;48.768;14.984;2023-07-22T03:20:46;13.00;52.30
29093;DHT22;16167;48.768;14.984;2023-07-22T03:23:16;12.90;49.80
29093;DHT22;16167;48.768;14.984;2023-07-22T03:25:44;12.90;51.60
29093;DHT22;16167;48.768;14.984;2023-07-22T03:28:12;12.90;59.90
29093;DHT22;16167;48.768;14.984;2023-07-22T03:30:40;12.80;53.80
29093;DHT22;16167;48.768;14.984;2023-07-22T03:33:09;12.80;59.00
29093;DHT22;16167;48.768;14.984;2023-07-22T03:35:38;12.70;60.30
29093;DHT22;16167;48.768;14.984;2023-07-22T03:38:07;12.60;58.70
29093;DHT22;16167;48.768;14.984;2023-07-22T03:40:37;12.60;67.90
29093;DHT22;16167;48.768;14.984;2023-07-22T03:43:05;12.60;60.90
29093;DHT22;16167;48.768;14.984;2023-07-22T03:45:33;12.50;61.40
29093;DHT22;16167;48.768;14.984;2023-07-22T03:48:01;12.50;58.90
29093;DHT22;16167;48.768;14.984;2023-07-22T03:50:29;12.50;52.50
29093;DHT22;16167;48.768;14.984;2023-07-22T03:52:57;12.60;61.50
29093;DHT22;16167;48.768;14.984;2023-07-22T03:55:26;12.50;61.00
29093;DHT22;16167;48.768;14.984;2023-07-22T03:57:55;12.60;53.20
29093;DHT22;16167;48.768;14.984;2023-07-22T04:00:23;12.60;53.80
29093;DHT22;16167;48.768;14.984;2023-07-22T04:02:51;12.60;54.20
29093;DHT22;16167;48.768;14.984;2023-07-22T04:05:20;12.70;52.60
29093;DHT22;16167;48.768;14.984;2023-07-22T04:07:48;12.70;51.10
29093;DHT22;16167;48.768;14.984;2023-07-22T04:10:16;12.80;46.40
29093;DHT22;16167;48.768;14.984;2023-07-22T04:12:44;12.80;54.20
29093;DHT22;16167;48.768;14.984;2023-07-22T04:15:14;12.90;53.00
29093;DHT22;16167;48.768;14.984;2023-07-22T04:17:44;13.00;51.40
29093;DHT22;16167;48.768;14.984;2023-07-22T04:20:12;13.00;53.00
29093;DHT22;16167;48.768;14.984;2023-07-22T04:22:41;13.00;50.60
29093;DHT22;16167;48.768;14.984;2023-07-22T04:25:09;13.10;48.20
29093;DHT22;16167;48.768;14.984;2023-07-22T04:27:38;13.10;43.30
29093;DHT22;16167;48.768;14.984;2023-07-22T04:30:07;13.20;46.50
29093;DHT22;16167;48.768;14.984;2023-07-22T04:32:37;13.20;42.40
29093;DHT22;16167;48.768;14.984;2023-07-22T04:35:07;13.30;43.10
29093;DHT22;16167;48.768;14.984;2023-07-22T04:37:35;13.40;43.60
29093;DHT22;16167;48.768;14.984;2023-07-22T04:40:04;13.40;45.70
29093;DHT22;16167;48.768;14.984;2023-07-22T04:42:35;13.50;37.80
29093;DHT22;16167;48.768;14.984;2023-07-22T04:45:04;13.60;34.20
29093;DHT22;16167;48.768;14.984;2023-07-22T04:47:33;13.60;25.80
29093;DHT22;16167;48.768;14.984;2023-07-22T04:50:03;13.70;17.20
29093;DHT22;16167;48.768;14.984;2023-07-22T04:52:32;13.80;24.00
29093;DHT22;16167;48.768;14.984;2023-07-22T04:55:00;13.90;25.60
29093;DHT22;16167;48.768;14.984;2023-07-22T04:57:31;14.00;25.20
29093;DHT22;16167;48.768;14.984;2023-07-22T04:59:59;14.10;15.40
29093;DHT22;16167;48.768;14.984;2023-07-22T05:02:30;14.20;8.00
29093;DHT22;16167;48.768;14.984;2023-07-22T05:04:58;14.30;1.00
29093;DHT22;16167;48.768;14.984;2023-07-22T05:07:28;14.40;1.00
29093;DHT22;16167;48.768;14.984;2023-07-22T05:09:57;14.60;1.00
29093;DHT22;16167;48.768;14.984;2023-07-22T05:12:25;14.70;1.00
29093;DHT22;16167;48.768;14.984;2023-07-22T05:14:53;14.80;1.00
29093;DHT22;16167;48.768;14.984;2023-07-22T05:17:21;14.90;1.00
29093;DHT22;16167;48.768;14.984;2023-07-22T05:19:50;15.00;1.00
29093;DHT22;16167;48.768;14.984;2023-07-22T05:22:18;15.10;1.00
29093;DHT22;16167;48.768;14.984;2023-07-22T05:24:47;15.20;1.00
29093;DHT22;16167;48.768;14.984;2023-07-22T05:27:16;15.30;1.00
29093;DHT22;16167;48.768;14.984;2023-07-22T05:29:45;15.40;1.00
29093;DHT22;16167;48.768;14.984;2023-07-22T05:32:13;15.50;1.00
29093;DHT22;16167;48.768;14.984;2023-07-22T05:34:59;15.70;1.00
29093;DHT22;16167;48.768;14.984;2023-07-22T05:37:28;15.70;1.00
29093;DHT22;16167;48.768;14.984;2023-07-22T05:39:58;15.90;1.00
29093;DHT22;16167;48.768;14.984;2023-07-22T05:42:27;16.00;1.00
29093;DHT22;16167;48.768;14.984;2023-07-22T05:44:56;16.10;1.00
29093;DHT22;16167;48.768;14.984;2023-07-22T05:47:25;16.20;1.00
29093;DHT22;16167;48.768;14.984;2023-07-22T05:49:53;16.40;1.00
29093;DHT22;16167;48.768;14.984;2023-07-22T05:52:21;16.50;1.00
29093;DHT22;16167;48.768;14.984;2023-07-22T05:54:50;16.70;1.00
29093;DHT22;16167;48.768;14.984;2023-07-22T05:57:19;16.80;1.00
29093;DHT22;16167;48.768;14.984;2023-07-22T05:59:47;16.90;1.00
29093;DHT22;16167;48.768;14.984;2023-07-22T06:02:33;17.00;1.00
29093;DHT22;16167;48.768;14.984;2023-07-22T06:05:01;17.20;1.00
29093;DHT22;16167;48.768;14.984;2023-07-22T06:07:30;17.30;1.00
29093;DHT22;16167;48.768;14.984;2023-07-22T06:09:59;17.50;1.00
29093;DHT22;16167;48.768;14.984;2023-07-22T06:12:28;17.50;1.00
29093;DHT22;16167;48.768;14.984;2023-07-22T06:14:56;17.60;1.00
29093;DHT22;16167;48.768;14.984;2023-07-22T06:17:24;17.70;1.00
29093;DHT22;16167;48.768;14.984;2023-07-22T06:19:53;17.80;1.00
29093;DHT22;16167;48.768;14.984;2023-07-22T06:22:21;17.90;1.00
29093;DHT22;16167;48.768;14.984;2023-07-22T06:24:49;18.00;1.00
29093;DHT22;16167;48.768;14.984;2023-07-22T06:27:17;18.10;1.00
29093;DHT22;16167;48.768;14.984;2023-07-22T06:29:47;18.20;1.00
29093;DHT22;16167;48.768;14.984;2023-07-22T06:32:14;18.40;1.00
29093;DHT22;16167;48.768;14.984;2023-07-22T06:34:43;18.50;1.00
29093;DHT22;16167;48.768;14.984;2023-07-22T06:37:11;18.70;1.00
29093;DHT22;16167;48.768;14.984;2023-07-22T06:39:39;18.80;1.00
29093;DHT22;16167;48.768;14.984;2023-07-22T06:42:07;18.90;1.00
29093;DHT22;16167;48.768;14.984;2023-07-22T06:44:35;19.10;1.00
29093;DHT22;16167;48.768;14.984;2023-07-22T06:47:05;19.20;1.00
29093;DHT22;16167;48.768;14.984;2023-07-22T06:49:33;19.30;1.00
29093;DHT22;16167;48.768;14.984;2023-07-22T06:52:02;19.50;1.00
29093;DHT22;16167;48.768;14.984;2023-07-22T06:54:30;19.70;1.00
29093;DHT22;16167;48.768;14.984;2023-07-22T06:56:58;19.80;1.00
29093;DHT22;16167;48.768;14.984;2023-07-22T06:59:26;20.00;1.00
29093;DHT22;16167;48.768;14.984;2023-07-22T07:01:55;20.10;1.00
29093;DHT22;16167;48.768;14.984;2023-07-22T07:04:25;20.20;1.00
29093;DHT22;16167;48.768;14.984;2023-07-22T07:06:54;20.30;1.00
29093;DHT22;16167;48.768;14.984;2023-07-22T07:09:22;20.30;1.00
29093;DHT22;16167;48.768;14.984;2023-07-22T07:11:50;20.50;1.00
29093;DHT22;16167;48.768;14.984;2023-07-22T07:14:18;20.60;1.00
29093;DHT22;16167;48.768;14.984;2023-07-22T07:16:46;20.70;1.00
29093;DHT22;16167;48.768;14.984;2023-07-22T07:19:14;20.90;1.00
29093;DHT22;16167;48.768;14.984;2023-07-22T07:21:44;21.10;1.00
29093;DHT22;16167;48.768;14.984;2023-07-22T07:24:13;21.20;1.00
29093;DHT22;16167;48.768;14.984;2023-07-22T07:26:41;21.30;1.00
29093;DHT22;16167;48.768;14.984;2023-07-22T07:29:09;21.40;1.00
29093;DHT22;16167;48.768;14.984;2023-07-22T07:31:38;21.60;1.00
29093;DHT22;16167;48.768;14.984;2023-07-22T07:34:07;21.80;1.00
29093;DHT22;16167;48.768;14.984;2023-07-22T07:36:35;21.80;1.00
29093;DHT22;16167;48.768;14.984;2023-07-22T07:39:04;21.90;1.00
29093;DHT22;16167;48.768;14.984;2023-07-22T07:41:32;22.10;1.00
29093;DHT22;16167;48.768;14.984;2023-07-22T07:44:01;22.30;1.00
29093;DHT22;16167;48.768;14.984;2023-07-22T07:46:29;22.50;1.00
29093;DHT22;16167;48.768;14.984;2023-07-22T07:48:58;22.70;1.00
29093;DHT22;16167;48.768;14.984;2023-07-22T07:51:29;22.70;1.00
29093;DHT22;16167;48.768;14.984;2023-07-22T07:53:58;23.00;1.00
29093;DHT22;16167;48.768;14.984;2023-07-22T07:56:28;22.90;1.00
29093;DHT22;16167;48.768;14.984;2023-07-22T07:58:56;23.10;1.00
29093;DHT22;16167;48.768;14.984;2023-07-22T08:01:24;23.10;1.00
29093;DHT22;16167;48.768;14.984;2023-07-22T08:03:53;23.30;1.00
29093;DHT22;16167;48.768;14.984;2023-07-22T08:06:21;23.50;1.00
29093;DHT22;16167;48.768;14.984;2023-07-22T08:08:50;23.70;1.00
29093;DHT22;16167;48.768;14.984;2023-07-22T08:11:18;23.80;1.00
29093;DHT22;16167;48.768;14.984;2023-07-22T08:13:48;23.80;1.00
29093;DHT22;16167;48.768;14.984;2023-07-22T08:16:17;23.90;1.00
29093;DHT22;16167;48.768;14.984;2023-07-22T08:18:46;23.90;1.00
29093;DHT22;16167;48.768;14.984;2023-07-22T08:21:14;24.10;1.00
29093;DHT22;16167;48.768;14.984;2023-07-22T08:23:42;24.30;1.00
29093;DHT22;16167;48.768;14.984;2023-07-22T08:26:13;24.60;1.00
29093;DHT22;16167;48.768;14.984;2023-07-22T08:28:44;24.60;1.00
29093;DHT22;16167;48.768;14.984;2023-07-22T08:31:14;24.80;1.00
29093;DHT22;16167;48.768;14.984;2023-07-22T08:33:43;24.90;1.00
29093;DHT22;16167;48.768;14.984;2023-07-22T08:36:11;24.90;1.00
29093;DHT22;16167;48.768;14.984;2023-07-22T08:38:39;25.00;1.00
29093;DHT22;16167;48.768;14.984;2023-07-22T08:41:07;25.00;1.00
29093;DHT22;16167;48.768;14.984;2023-07-22T08:43:36;25.20;1.00
29093;DHT22;16167;48.768;14.984;2023-07-22T08:46:08;25.20;1.00
29093;DHT22;16167;48.768;14.984;2023-07-22T08:48:41;25.30;1.00
29093;DHT22;16167;48.768;14.984;2023-07-22T08:51:14;25.50;1.00
29093;DHT22;16167;48.768;14.984;2023-07-22T08:53:43;25.80;1.00
29093;DHT22;16167;48.768;14.984;2023-07-22T08:56:23;25.90;1.00
29093;DHT22;16167;48.768;14.984;2023-07-22T08:58:52;26.10;1.00
29093;DHT22;16167;48.768;14.984;2023-07-22T09:01:21;26.30;1.00
29093;DHT22;16167;48.768;14.984;2023-07-22T09:03:52;26.40;1.00
29093;DHT22;16167;48.768;14.984;2023-07-22T09:06:23;26.40;1.00
29093;DHT22;16167;48.768;14.984;2023-07-22T09:08:52;26.60;1.00
29093;DHT22;16167;48.768;14.984;2023-07-22T09:11:20;26.80;1.00
29093;DHT22;16167;48.768;14.984;2023-07-22T09:13:49;27.00;1.00
29093;DHT22;16167;48.768;14.984;2023-07-22T09:16:18;26.90;1.00
29093;DHT22;16167;48.768;14.984;2023-07-22T09:18:47;27.10;1.00
29093;DHT22;16167;48.768;14.984;2023-07-22T09:21:17;27.40;1.00
29093;DHT22;16167;48.768;14.984;2023-07-22T09:23:45;27.60;1.00
29093;DHT22;16167;48.768;14.984;2023-07-22T09:26:14;27.50;1.00
29093;DHT22;16167;48.768;14.984;2023-07-22T09:28:53;27.40;1.00
29093;DHT22;16167;48.768;14.984;2023-07-22T09:31:21;27.50;1.00
29093;DHT22;16167;48.768;14.984;2023-07-22T09:33:50;27.40;1.00
29093;DHT22;16167;48.768;14.984;2023-07-22T09:36:22;27.60;1.00
29093;DHT22;16167;48.768;14.984;2023-07-22T09:39:00;27.50;1.00
29093;DHT22;16167;48.768;14.984;2023-07-22T09:41:30;27.70;1.00
29093;DHT22;16167;48.768;14.984;2023-07-22T09:44:02;27.40;1.00
29093;DHT22;16167;48.768;14.984;2023-07-22T09:46:31;27.60;1.00
29093;DHT22;16167;48.768;14.984;2023-07-22T09:49:03;27.90;1.00
29093;DHT22;16167;48.768;14.984;2023-07-22T09:51:35;28.00;1.00
29093;DHT22;16167;48.768;14.984;2023-07-22T09:54:22;27.60;1.00
29093;DHT22;16167;48.768;14.984;2023-07-22T09:56:55;27.70;1.00
29093;DHT22;16167;48.768;14.984;2023-07-22T09:59:24;27.80;1.00
29093;DHT22;16167;48.768;14.984;2023-07-22T10:01:56;27.90;1.00
29093;DHT22;16167;48.768;14.984;2023-07-22T10:04:28;28.20;1.00
29093;DHT22;16167;48.768;14.984;2023-07-22T10:07:03;28.30;1.00
29093;DHT22;16167;48.768;14.984;2023-07-22T10:09:31;28.80;1.00
29093;DHT22;16167;48.768;14.984;2023-07-22T10:12:00;28.70;1.00
29093;DHT22;16167;48.768;14.984;2023-07-22T10:14:30;28.80;1.00
29093;DHT22;16167;48.768;14.984;2023-07-22T10:17:02;29.10;1.00
29093;DHT22;16167;48.768;14.984;2023-07-22T10:19:31;29.30;1.00
29093;DHT22;16167;48.768;14.984;2023-07-22T10:22:02;28.80;1.00
29093;DHT22;16167;48.768;14.984;2023-07-22T10:24:31;28.30;1.00
29093;DHT22;16167;48.768;14.984;2023-07-22T10:27:00;28.00;1.00
29093;DHT22;16167;48.768;14.984;2023-07-22T10:29:29;27.80;1.00
29093;DHT22;16167;48.768;14.984;2023-07-22T10:31:57;27.60;1.00
29093;DHT22;16167;48.768;14.984;2023-07-22T10:34:26;27.60;1.00
29093;DHT22;16167;48.768;14.984;2023-07-22T10:36:56;28.00;1.00
29093;DHT22;16167;48.768;14.984;2023-07-22T10:39:29;28.70;1.00
29093;DHT22;16167;48.768;14.984;2023-07-22T10:42:01;29.20;1.00
29093;DHT22;16167;48.768;14.984;2023-07-22T10:44:31;29.50;1.00
29093;DHT22;16167;48.768;14.984;2023-07-22T10:47:00;29.70;1.00
29093;DHT22;16167;48.768;14.984;2023-07-22T10:49:43;30.10;1.00
29093;DHT22;16167;48.768;14.984;2023-07-22T10:52:11;30.30;1.00
29093;DHT22;16167;48.768;14.984;2023-07-22T10:54:42;30.60;1.00
29093;DHT22;16167;48.768;14.984;2023-07-22T10:57:23;30.80;1.00
29093;DHT22;16167;48.768;14.984;2023-07-22T10:59:55;31.20;1.00
29093;DHT22;16167;48.768;14.984;2023-07-22T11:02:24;31.30;1.00
29093;DHT22;16167;48.768;14.984;2023-07-22T11:04:56;31.20;1.00
29093;DHT22;16167;48.768;14.984;2023-07-22T11:07:31;30.60;1.00
29093;DHT22;16167;48.768;14.984;2023-07-22T11:10:16;30.10;1.00
29093;DHT22;16167;48.768;14.984;2023-07-22T11:12:45;30.30;1.00
29093;DHT22;16167;48.768;14.984;2023-07-22T11:15:14;30.60;1.00
29093;DHT22;16167;48.768;14.984;2023-07-22T11:17:43;30.60;1.00
29093;DHT22;16167;48.768;14.984;2023-07-22T11:20:11;30.80;1.00
29093;DHT22;16167;48.768;14.984;2023-07-22T11:22:40;30.90;1.00
29093;DHT22;16167;48.768;14.984;2023-07-22T11:25:08;31.20;1.00
29093;DHT22;16167;48.768;14.984;2023-07-22T11:27:38;31.50;1.00
29093;DHT22;16167;48.768;14.984;2023-07-22T11:30:07;31.50;1.00
29093;DHT22;16167;48.768;14.984;2023-07-22T11:32:42;31.80;1.00
29093;DHT22;16167;48.768;14.984;2023-07-22T11:35:10;32.00;1.00
29093;DHT22;16167;48.768;14.984;2023-07-22T11:37:38;32.30;1.00
29093;DHT22;16167;48.768;14.984;2023-07-22T11:40:11;32.70;1.00
29093;DHT22;16167;48.768;14.984;2023-07-22T11:42:41;32.90;1.00
29093;DHT22;16167;48.768;14.984;2023-07-22T11:45:10;33.30;1.00
29093;DHT22;16167;48.768;14.984;2023-07-22T11:47:38;33.40;1.00
29093;DHT22;16167;48.768;14.984;2023-07-22T11:50:07;33.00;1.00
29093;DHT22;16167;48.768;14.984;2023-07-22T11:52:36;32.90;1.00
29093;DHT22;16167;48.768;14.984;2023-07-22T11:55:05;32.70;1.00
29093;DHT22;16167;48.768;14.984;2023-07-22T11:57:33;32.40;1.00
29093;DHT22;16167;48.768;14.984;2023-07-22T12:00:03;32.20;1.00
29093;DHT22;16167;48.768;14.984;2023-07-22T12:02:36;32.40;1.00
29093;DHT22;16167;48.768;14.984;2023-07-22T12:05:05;32.20;1.00
29093;DHT22;16167;48.768;14.984;2023-07-22T12:07:33;32.50;1.00
29093;DHT22;16167;48.768;14.984;2023-07-22T12:10:03;32.80;1.00
29093;DHT22;16167;48.768;14.984;2023-07-22T12:12:33;33.00;1.00
29093;DHT22;16167;48.768;14.984;2023-07-22T12:15:03;33.30;1.00
29093;DHT22;16167;48.768;14.984;2023-07-22T12:17:44;33.70;1.00
29093;DHT22;16167;48.768;14.984;2023-07-22T12:20:14;33.50;1.00
29093;DHT22;16167;48.768;14.984;2023-07-22T12:22:42;33.80;1.00
29093;DHT22;16167;48.768;14.984;2023-07-22T12:25:11;33.50;1.00
29093;DHT22;16167;48.768;14.984;2023-07-22T12:27:39;33.90;1.00
29093;DHT22;16167;48.768;14.984;2023-07-22T12:30:09;33.90;1.00
29093;DHT22;16167;48.768;14.984;2023-07-22T12:32:37;33.70;1.00
29093;DHT22;16167;48.768;14.984;2023-07-22T12:35:06;34.10;1.00
29093;DHT22;16167;48.768;14.984;2023-07-22T12:37:35;34.10;1.00
29093;DHT22;16167;48.768;14.984;2023-07-22T12:40:04;33.00;1.00
29093;DHT22;16167;48.768;14.984;2023-07-22T12:42:35;32.60;1.00
29093;DHT22;16167;48.768;14.984;2023-07-22T12:45:04;32.70;1.00
29093;DHT22;16167;48.768;14.984;2023-07-22T12:47:34;33.40;1.00
29093;DHT22;16167;48.768;14.984;2023-07-22T12:50:02;33.90;1.00
29093;DHT22;16167;48.768;14.984;2023-07-22T12:52:31;34.40;1.00
29093;DHT22;16167;48.768;14.984;2023-07-22T12:54:59;33.90;1.00
29093;DHT22;16167;48.768;14.984;2023-07-22T12:57:27;33.40;1.00
29093;DHT22;16167;48.768;14.984;2023-07-22T12:59:55;33.60;1.00
29093;DHT22;16167;48.768;14.984;2023-07-22T13:02:23;33.70;1.00
29093;DHT22;16167;48.768;14.984;2023-07-22T13:04:53;34.10;1.00
29093;DHT22;16167;48.768;14.984;2023-07-22T13:07:21;33.60;1.00
29093;DHT22;16167;48.768;14.984;2023-07-22T13:12:33;34.30;1.00
29093;DHT22;16167;48.768;14.984;2023-07-22T13:15:01;34.80;1.00
29093;DHT22;16167;48.768;14.984;2023-07-22T13:17:30;35.00;1.00
29093;DHT22;16167;48.768;14.984;2023-07-22T13:19:59;35.30;1.00
29093;DHT22;16167;48.768;14.984;2023-07-22T13:22:27;35.50;1.00
29093;DHT22;16167;48.768;14.984;2023-07-22T13:24:55;35.60;1.00
29093;DHT22;16167;48.768;14.984;2023-07-22T13:27:23;35.50;1.00
29093;DHT22;16167;48.768;14.984;2023-07-22T13:29:51;35.60;1.00
29093;DHT22;16167;48.768;14.984;2023-07-22T13:32:19;35.70;1.00
29093;DHT22;16167;48.768;14.984;2023-07-22T13:34:48;35.90;1.00
29093;DHT22;16167;48.768;14.984;2023-07-22T13:37:17;36.00;1.00
29093;DHT22;16167;48.768;14.984;2023-07-22T13:39:45;36.00;1.00
29093;DHT22;16167;48.768;14.984;2023-07-22T13:42:13;36.10;1.00
29093;DHT22;16167;48.768;14.984;2023-07-22T13:44:42;36.20;1.00
29093;DHT22;16167;48.768;14.984;2023-07-22T13:47:10;36.20;1.00
29093;DHT22;16167;48.768;14.984;2023-07-22T13:49:38;36.00;1.00
29093;DHT22;16167;48.768;14.984;2023-07-22T13:52:06;36.10;1.00
29093;DHT22;16167;48.768;14.984;2023-07-22T13:54:35;36.20;1.00
29093;DHT22;16167;48.768;14.984;2023-07-22T13:57:04;36.20;1.00
29093;DHT22;16167;48.768;14.984;2023-07-22T13:59:33;36.20;1.00
29093;DHT22;16167;48.768;14.984;2023-07-22T14:02:01;36.20;1.00
29093;DHT22;16167;48.768;14.984;2023-07-22T14:04:30;36.00;1.00
29093;DHT22;16167;48.768;14.984;2023-07-22T14:06:58;35.80;1.00
29093;DHT22;16167;48.768;14.984;2023-07-22T14:09:26;35.80;1.00
29093;DHT22;16167;48.768;14.984;2023-07-22T14:11:56;36.00;1.00
29093;DHT22;16167;48.768;14.984;2023-07-22T14:14:24;36.10;1.00
29093;DHT22;16167;48.768;14.984;2023-07-22T14:16:55;35.80;1.00
29093;DHT22;16167;48.768;14.984;2023-07-22T14:19:24;35.20;1.00
29093;DHT22;16167;48.768;14.984;2023-07-22T14:21:52;35.00;1.00
29093;DHT22;16167;48.768;14.984;2023-07-22T14:24:20;34.60;1.00
29093;DHT22;16167;48.768;14.984;2023-07-22T14:26:48;34.20;1.00
29093;DHT22;16167;48.768;14.984;2023-07-22T14:29:18;33.90;1.00
29093;DHT22;16167;48.768;14.984;2023-07-22T14:31:47;33.40;1.00
29093;DHT22;16167;48.768;14.984;2023-07-22T14:34:15;33.60;1.00
29093;DHT22;16167;48.768;14.984;2023-07-22T14:36:43;34.00;1.00
29093;DHT22;16167;48.768;14.984;2023-07-22T14:39:11;34.10;1.00
29093;DHT22;16167;48.768;14.984;2023-07-22T14:41:41;34.20;1.00
29093;DHT22;16167;48.768;14.984;2023-07-22T14:44:10;34.30;1.00
29093;DHT22;16167;48.768;14.984;2023-07-22T14:46:39;34.20;1.00
29093;DHT22;16167;48.768;14.984;2023-07-22T14:49:08;34.10;1.00
29093;DHT22;16167;48.768;14.984;2023-07-22T14:51:36;33.90;1.00
29093;DHT22;16167;48.768;14.984;2023-07-22T14:54:04;33.90;1.00
29093;DHT22;16167;48.768;14.984;2023-07-22T14:56:33;33.70;1.00
29093;DHT22;16167;48.768;14.984;2023-07-22T14:59:01;33.40;1.00
29093;DHT22;16167;48.768;14.984;2023-07-22T15:01:36;33.30;1.00
29093;DHT22;16167;48.768;14.984;2023-07-22T15:04:06;33.20;1.00
29093;DHT22;16167;48.768;14.984;2023-07-22T15:06:35;33.00;1.00
29093;DHT22;16167;48.768;14.984;2023-07-22T15:09:03;33.00;1.00
29093;DHT22;16167;48.768;14.984;2023-07-22T15:11:34;33.00;1.00
29093;DHT22;16167;48.768;14.984;2023-07-22T15:14:02;33.10;1.00
29093;DHT22;16167;48.768;14.984;2023-07-22T15:16:30;33.00;1.00
29093;DHT22;16167;48.768;14.984;2023-07-22T15:18:58;32.90;1.00
29093;DHT22;16167;48.768;14.984;2023-07-22T15:21:28;32.80;1.00
29093;DHT22;16167;48.768;14.984;2023-07-22T15:23:56;32.80;1.00
29093;DHT22;16167;48.768;14.984;2023-07-22T15:26:24;32.80;1.00
29093;DHT22;16167;48.768;14.984;2023-07-22T15:28:53;32.80;1.00
29093;DHT22;16167;48.768;14.984;2023-07-22T15:31:21;32.80;1.00
29093;DHT22;16167;48.768;14.984;2023-07-22T15:33:49;32.80;1.00
29093;DHT22;16167;48.768;14.984;2023-07-22T15:36:18;32.80;1.00
29093;DHT22;16167;48.768;14.984;2023-07-22T15:38:47;32.70;1.00
29093;DHT22;16167;48.768;14.984;2023-07-22T15:41:15;32.00;1.00